sensor_id;sensor_type;location;lat;lon;timestamp;temperature;humidity
25504;DHT22;13410;52.114;5.718;2023-06-22T00:01:01;25.10;99.90
25504;DHT22;13410;52.114;5.718;2023-06-22T00:03:27;24.80;99.90
25504;DHT22;13410;52.114;5.718;2023-06-22T00:05:53;25.30;99.90
25504;DHT22;13410;52.114;5.718;2023-06-22T00:08:19;25.90;99.90
25504;DHT22;13410;52.114;5.718;2023-06-22T00:10:45;26.10;99.90
25504;DHT22;13410;52.114;5.718;2023-06-22T00:13:12;25.30;99.90
25504;DHT22;13410;52.114;5.718;2023-06-22T00:15:38;25.20;99.90
25504;DHT22;13410;52.114;5.718;2023-06-22T00:18:08;24.90;99.90
25504;DHT22;13410;52.114;5.718;2023-06-22T00:20:34;24.70;99.90
25504;DHT22;13410;52.114;5.718;2023-06-22T00:23:03;24.60;99.90
25504;DHT22;13410;52.114;5.718;2023-06-22T00:25:36;24.40;99.90
25504;DHT22;13410;52.114;5.718;2023-06-22T00:28:03;24.30;99.90
25504;DHT22;13410;52.114;5.718;2023-06-22T00:30:29;24.30;99.90
25504;DHT22;13410;52.114;5.718;2023-06-22T00:32:55;24.60;99.90
25504;DHT22;13410;52.114;5.718;2023-06-22T00:35:21;24.50;99.90
25504;DHT22;13410;52.114;5.718;2023-06-22T00:37:46;24.40;99.90
25504;DHT22;13410;52.114;5.718;2023-06-22T00:40:12;24.30;99.90
25504;DHT22;13410;52.114;5.718;2023-06-22T00:42:38;24.70;99.90
25504;DHT22;13410;52.114;5.718;2023-06-22T00:45:05;24.60;99.90
25504;DHT22;13410;52.114;5.718;2023-06-22T00:47:31;24.80;99.90
25504;DHT22;13410;52.114;5.718;2023-06-22T00:49:58;25.00;99.90
25504;DHT22;13410;52.114;5.718;2023-06-22T00:52:24;24.90;99.90
25504;DHT22;13410;52.114;5.718;2023-06-22T00:54:55;24.70;99.90
25504;DHT22;13410;52.114;5.718;2023-06-22T00:57:22;24.40;99.90
25504;DHT22;13410;52.114;5.718;2023-06-22T00:59:51;23.90;99.90
25504;DHT22;13410;52.114;5.718;2023-06-22T01:02:16;23.80;99.90
25504;DHT22;13410;52.114;5.718;2023-06-22T01:04:42;24.10;99.90
25504;DHT22;13410;52.114;5.718;2023-06-22T01:07:31;24.80;99.90
25504;DHT22;13410;52.114;5.718;2023-06-22T01:10:06;25.30;99.90
25504;DHT22;13410;52.114;5.718;2023-06-22T01:12:35;25.40;99.90
25504;DHT22;13410;52.114;5.718;2023-06-22T01:15:21;25.80;99.90
25504;DHT22;13410;52.114;5.718;2023-06-22T01:17:49;26.00;99.90
25504;DHT22;13410;52.114;5.718;2023-06-22T01:20:17;26.00;99.90
25504;DHT22;13410;52.114;5.718;2023-06-22T01:25:49;25.40;99.90
25504;DHT22;13410;52.114;5.718;2023-06-22T01:28:45;25.80;99.90
25504;DHT22;13410;52.114;5.718;2023-06-22T01:31:16;25.70;99.90
25504;DHT22;13410;52.114;5.718;2023-06-22T01:33:48;25.50;99.90
25504;DHT22;13410;52.114;5.718;2023-06-22T01:36:14;24.90;99.90
25504;DHT22;13410;52.114;5.718;2023-06-22T01:38:42;24.80;99.90
25504;DHT22;13410;52.114;5.718;2023-06-22T01:41:09;24.60;99.90
25504;DHT22;13410;52.114;5.718;2023-06-22T01:43:35;24.70;99.90
25504;DHT22;13410;52.114;5.718;2023-06-22T01:46:02;24.70;99.90
25504;DHT22;13410;52.114;5.718;2023-06-22T01:48:29;24.20;99.90
25504;DHT22;13410;52.114;5.718;2023-06-22T01:50:55;24.40;99.90
25504;DHT22;13410;52.114;5.718;2023-06-22T01:53:21;24.40;99.90
25504;DHT22;13410;52.114;5.718;2023-06-22T01:55:47;25.00;99.90
25504;DHT22;13410;52.114;5.718;2023-06-22T01:58:13;25.30;99.90
25504;DHT22;13410;52.114;5.718;2023-06-22T02:00:41;25.50;99.90
25504;DHT22;13410;52.114;5.718;2023-06-22T02:03:14;24.80;99.90
25504;DHT22;13410;52.114;5.718;2023-06-22T02:05:47;24.40;99.90
25504;DHT22;13410;52.114;5.718;2023-06-22T02:08:30;24.10;99.90
25504;DHT22;13410;52.114;5.718;2023-06-22T02:10:58;24.10;99.90
25504;DHT22;13410;52.114;5.718;2023-06-22T02:13:25;23.60;99.90
25504;DHT22;13410;52.114;5.718;2023-06-22T02:15:51;24.00;99.90
25504;DHT22;13410;52.114;5.718;2023-06-22T02:18:17;24.60;99.90
25504;DHT22;13410;52.114;5.718;2023-06-22T02:20:42;25.10;99.90
25504;DHT22;13410;52.114;5.718;2023-06-22T02:23:08;25.20;99.90
25504;DHT22;13410;52.114;5.718;2023-06-22T02:25:35;25.00;99.90
25504;DHT22;13410;52.114;5.718;2023-06-22T02:28:01;24.60;99.90
25504;DHT22;13410;52.114;5.718;2023-06-22T02:30:26;23.90;99.90
25504;DHT22;13410;52.114;5.718;2023-06-22T02:32:52;23.80;99.90
25504;DHT22;13410;52.114;5.718;2023-06-22T02:35:27;24.00;99.90
25504;DHT22;13410;52.114;5.718;2023-06-22T02:37:57;24.10;99.90
25504;DHT22;13410;52.114;5.718;2023-06-22T02:40:23;24.40;99.90
25504;DHT22;13410;52.114;5.718;2023-06-22T02:42:48;25.00;99.90
25504;DHT22;13410;52.114;5.718;2023-06-22T02:45:14;25.10;99.90
25504;DHT22;13410;52.114;5.718;2023-06-22T02:47:40;25.30;99.90
25504;DHT22;13410;52.114;5.718;2023-06-22T02:50:05;25.30;99.90
25504;DHT22;13410;52.114;5.718;2023-06-22T02:52:31;25.40;99.90
25504;DHT22;13410;52.114;5.718;2023-06-22T02:54:57;25.30;99.90
25504;DHT22;13410;52.114;5.718;2023-06-22T02:57:22;25.40;99.90
25504;DHT22;13410;52.114;5.718;2023-06-22T02:59:48;25.60;99.90
25504;DHT22;13410;52.114;5.718;2023-06-22T03:02:13;25.30;99.90
25504;DHT22;13410;52.114;5.718;2023-06-22T03:04:39;24.80;99.90
25504;DHT22;13410;52.114;5.718;2023-06-22T03:07:05;24.90;99.90
25504;DHT22;13410;52.114;5.718;2023-06-22T03:09:30;24.70;99.90
25504;DHT22;13410;52.114;5.718;2023-06-22T03:11:56;24.50;99.90
25504;DHT22;13410;52.114;5.718;2023-06-22T03:14:22;23.90;99.90
25504;DHT22;13410;52.114;5.718;2023-06-22T03:16:47;23.50;99.90
25504;DHT22;13410;52.114;5.718;2023-06-22T03:19:13;23.50;99.90
25504;DHT22;13410;52.114;5.718;2023-06-22T03:21:39;23.70;99.90
25504;DHT22;13410;52.114;5.718;2023-06-22T03:24:06;23.70;99.90
25504;DHT22;13410;52.114;5.718;2023-06-22T03:26:31;24.40;99.90
25504;DHT22;13410;52.114;5.718;2023-06-22T03:28:57;23.90;99.90
25504;DHT22;13410;52.114;5.718;2023-06-22T03:31:23;23.50;99.90
25504;DHT22;13410;52.114;5.718;2023-06-22T03:33:50;23.40;99.90
25504;DHT22;13410;52.114;5.718;2023-06-22T03:36:17;23.20;99.90
25504;DHT22;13410;52.114;5.718;2023-06-22T03:38:45;23.20;99.90
25504;DHT22;13410;52.114;5.718;2023-06-22T03:41:10;23.40;99.90
25504;DHT22;13410;52.114;5.718;2023-06-22T03:43:36;23.40;99.90
25504;DHT22;13410;52.114;5.718;2023-06-22T03:46:01;23.30;99.90
25504;DHT22;13410;52.114;5.718;2023-06-22T03:48:27;23.00;99.90
25504;DHT22;13410;52.114;5.718;2023-06-22T03:50:52;23.00;99.90
25504;DHT22;13410;52.114;5.718;2023-06-22T03:53:18;22.70;99.90
25504;DHT22;13410;52.114;5.718;2023-06-22T03:55:51;23.20;99.90
25504;DHT22;13410;52.114;5.718;2023-06-22T03:58:17;23.20;99.90
25504;DHT22;13410;52.114;5.718;2023-06-22T04:00:48;24.10;99.90
25504;DHT22;13410;52.114;5.718;2023-06-22T04:03:14;24.40;99.90
25504;DHT22;13410;52.114;5.718;2023-06-22T04:05:40;24.90;99.90
25504;DHT22;13410;52.114;5.718;2023-06-22T04:08:06;24.80;99.90
25504;DHT22;13410;52.114;5.718;2023-06-22T04:10:32;24.00;99.90
25504;DHT22;13410;52.114;5.718;2023-06-22T04:12:58;23.40;99.90
25504;DHT22;13410;52.114;5.718;2023-06-22T04:15:23;23.70;99.90
25504;DHT22;13410;52.114;5.718;2023-06-22T04:17:49;23.70;99.90
25504;DHT22;13410;52.114;5.718;2023-06-22T04:20:14;24.20;99.90
25504;DHT22;13410;52.114;5.718;2023-06-22T04:22:40;24.70;99.90
25504;DHT22;13410;52.114;5.718;2023-06-22T04:25:06;25.00;99.90
25504;DHT22;13410;52.114;5.718;2023-06-22T04:27:35;25.30;99.90
25504;DHT22;13410;52.114;5.718;2023-06-22T04:30:06;25.70;99.90
25504;DHT22;13410;52.114;5.718;2023-06-22T04:32:33;25.80;99.90
25504;DHT22;13410;52.114;5.718;2023-06-22T04:35:01;26.00;99.90
25504;DHT22;13410;52.114;5.718;2023-06-22T04:37:27;26.10;99.90
25504;DHT22;13410;52.114;5.718;2023-06-22T04:39:53;26.20;99.90
25504;DHT22;13410;52.114;5.718;2023-06-22T04:42:18;26.70;99.90
25504;DHT22;13410;52.114;5.718;2023-06-22T04:44:46;26.90;99.90
25504;DHT22;13410;52.114;5.718;2023-06-22T04:47:11;27.40;99.90
25504;DHT22;13410;52.114;5.718;2023-06-22T04:49:39;28.10;99.90
25504;DHT22;13410;52.114;5.718;2023-06-22T04:52:08;28.50;99.90
25504;DHT22;13410;52.114;5.718;2023-06-22T04:54:35;29.00;99.90
25504;DHT22;13410;52.114;5.718;2023-06-22T04:57:01;29.10;99.90
25504;DHT22;13410;52.114;5.718;2023-06-22T04:59:28;28.60;99.90
25504;DHT22;13410;52.114;5.718;2023-06-22T05:02:00;28.50;99.90
25504;DHT22;13410;52.114;5.718;2023-06-22T05:04:26;28.80;99.90
25504;DHT22;13410;52.114;5.718;2023-06-22T05:06:53;29.20;99.90
25504;DHT22;13410;52.114;5.718;2023-06-22T05:09:20;29.60;99.90
25504;DHT22;13410;52.114;5.718;2023-06-22T05:11:46;29.60;99.90
25504;DHT22;13410;52.114;5.718;2023-06-22T05:14:12;29.30;99.90
25504;DHT22;13410;52.114;5.718;2023-06-22T05:16:38;29.70;99.90
25504;DHT22;13410;52.114;5.718;2023-06-22T05:19:04;30.00;99.90
25504;DHT22;13410;52.114;5.718;2023-06-22T05:21:30;30.60;99.90
25504;DHT22;13410;52.114;5.718;2023-06-22T05:23:57;31.20;99.90
25504;DHT22;13410;52.114;5.718;2023-06-22T05:26:27;31.30;99.90
25504;DHT22;13410;52.114;5.718;2023-06-22T05:28:53;31.00;99.90
25504;DHT22;13410;52.114;5.718;2023-06-22T05:31:19;31.00;99.90
25504;DHT22;13410;52.114;5.718;2023-06-22T05:33:45;31.00;99.90
25504;DHT22;13410;52.114;5.718;2023-06-22T05:36:11;30.90;99.90
25504;DHT22;13410;52.114;5.718;2023-06-22T05:38:38;30.90;99.90
25504;DHT22;13410;52.114;5.718;2023-06-22T05:41:04;31.10;99.90
25504;DHT22;13410;52.114;5.718;2023-06-22T05:43:30;31.20;99.90
25504;DHT22;13410;52.114;5.718;2023-06-22T05:45:56;31.10;99.90
25504;DHT22;13410;52.114;5.718;2023-06-22T05:48:21;31.00;99.90
25504;DHT22;13410;52.114;5.718;2023-06-22T05:50:47;30.70;99.90
25504;DHT22;13410;52.114;5.718;2023-06-22T05:53:13;30.50;99.90
25504;DHT22;13410;52.114;5.718;2023-06-22T05:55:38;30.20;99.90
25504;DHT22;13410;52.114;5.718;2023-06-22T05:58:04;28.80;99.90
25504;DHT22;13410;52.114;5.718;2023-06-22T06:00:30;28.90;99.90
25504;DHT22;13410;52.114;5.718;2023-06-22T06:02:55;29.20;99.90
25504;DHT22;13410;52.114;5.718;2023-06-22T06:05:21;29.50;99.90
25504;DHT22;13410;52.114;5.718;2023-06-22T06:07:48;29.70;99.90
25504;DHT22;13410;52.114;5.718;2023-06-22T06:10:13;29.90;99.90
25504;DHT22;13410;52.114;5.718;2023-06-22T06:12:39;30.00;99.90
25504;DHT22;13410;52.114;5.718;2023-06-22T06:15:05;29.70;99.90
25504;DHT22;13410;52.114;5.718;2023-06-22T06:17:31;30.10;99.90
25504;DHT22;13410;52.114;5.718;2023-06-22T06:19:58;30.40;99.90
25504;DHT22;13410;52.114;5.718;2023-06-22T06:22:23;29.80;99.90
25504;DHT22;13410;52.114;5.718;2023-06-22T06:24:49;28.50;99.90
25504;DHT22;13410;52.114;5.718;2023-06-22T06:27:15;27.20;99.90
25504;DHT22;13410;52.114;5.718;2023-06-22T06:29:43;26.10;99.90
25504;DHT22;13410;52.114;5.718;2023-06-22T06:32:11;25.00;99.90
25504;DHT22;13410;52.114;5.718;2023-06-22T06:34:36;24.80;99.90
25504;DHT22;13410;52.114;5.718;2023-06-22T06:37:02;24.80;99.90
25504;DHT22;13410;52.114;5.718;2023-06-22T06:39:28;25.20;99.90
25504;DHT22;13410;52.114;5.718;2023-06-22T06:41:53;25.70;99.90
25504;DHT22;13410;52.114;5.718;2023-06-22T06:44:19;25.40;99.90
25504;DHT22;13410;52.114;5.718;2023-06-22T06:46:44;24.80;99.90
25504;DHT22;13410;52.114;5.718;2023-06-22T06:49:10;24.80;99.90
25504;DHT22;13410;52.114;5.718;2023-06-22T06:51:36;25.00;99.90
25504;DHT22;13410;52.114;5.718;2023-06-22T06:54:01;25.30;99.90
25504;DHT22;13410;52.114;5.718;2023-06-22T06:56:28;25.70;99.90
25504;DHT22;13410;52.114;5.718;2023-06-22T06:58:55;26.60;99.90
25504;DHT22;13410;52.114;5.718;2023-06-22T07:01:21;27.20;99.90
25504;DHT22;13410;52.114;5.718;2023-06-22T07:03:46;26.40;99.90
25504;DHT22;13410;52.114;5.718;2023-06-22T07:06:13;26.20;99.90
25504;DHT22;13410;52.114;5.718;2023-06-22T07:08:39;25.40;99.90
25504;DHT22;13410;52.114;5.718;2023-06-22T07:11:05;24.70;99.90
25504;DHT22;13410;52.114;5.718;2023-06-22T07:13:31;24.60;99.90
25504;DHT22;13410;52.114;5.718;2023-06-22T07:15:56;25.10;99.90
25504;DHT22;13410;52.114;5.718;2023-06-22T07:18:22;25.10;99.90
25504;DHT22;13410;52.114;5.718;2023-06-22T07:20:47;24.80;99.90
25504;DHT22;13410;52.114;5.718;2023-06-22T07:23:13;25.10;99.90
25504;DHT22;13410;52.114;5.718;2023-06-22T07:25:38;25.30;99.90
25504;DHT22;13410;52.114;5.718;2023-06-22T07:28:05;25.40;99.90
25504;DHT22;13410;52.114;5.718;2023-06-22T07:30:32;25.30;99.90
25504;DHT22;13410;52.114;5.718;2023-06-22T07:32:59;25.50;99.90
25504;DHT22;13410;52.114;5.718;2023-06-22T07:35:29;25.40;99.90
25504;DHT22;13410;52.114;5.718;2023-06-22T07:37:55;24.90;99.90
25504;DHT22;13410;52.114;5.718;2023-06-22T07:40:20;25.40;99.90
25504;DHT22;13410;52.114;5.718;2023-06-22T07:42:46;26.40;99.90
25504;DHT22;13410;52.114;5.718;2023-06-22T07:45:13;26.20;99.90
25504;DHT22;13410;52.114;5.718;2023-06-22T07:47:39;27.10;99.90
25504;DHT22;13410;52.114;5.718;2023-06-22T07:50:06;27.60;99.90
25504;DHT22;13410;52.114;5.718;2023-06-22T07:52:32;27.00;99.90
25504;DHT22;13410;52.114;5.718;2023-06-22T07:54:57;26.00;99.90
25504;DHT22;13410;52.114;5.718;2023-06-22T07:57:23;26.00;99.90
25504;DHT22;13410;52.114;5.718;2023-06-22T07:59:57;25.80;99.90
25504;DHT22;13410;52.114;5.718;2023-06-22T08:02:23;26.30;99.90
25504;DHT22;13410;52.114;5.718;2023-06-22T08:04:49;26.00;99.90
25504;DHT22;13410;52.114;5.718;2023-06-22T08:07:14;26.10;99.90
25504;DHT22;13410;52.114;5.718;2023-06-22T08:09:46;26.10;99.90
25504;DHT22;13410;52.114;5.718;2023-06-22T08:12:12;26.10;99.90
25504;DHT22;13410;52.114;5.718;2023-06-22T08:14:38;25.80;99.90
25504;DHT22;13410;52.114;5.718;2023-06-22T08:17:04;25.60;99.90
25504;DHT22;13410;52.114;5.718;2023-06-22T08:19:30;25.40;99.90
25504;DHT22;13410;52.114;5.718;2023-06-22T08:21:56;25.40;99.90
25504;DHT22;13410;52.114;5.718;2023-06-22T08:24:23;25.30;99.90
25504;DHT22;13410;52.114;5.718;2023-06-22T08:26:51;25.80;99.90
25504;DHT22;13410;52.114;5.718;2023-06-22T08:29:17;26.20;99.90
25504;DHT22;13410;52.114;5.718;2023-06-22T08:31:42;26.20;99.90
25504;DHT22;13410;52.114;5.718;2023-06-22T08:34:08;26.20;99.90
25504;DHT22;13410;52.114;5.718;2023-06-22T08:36:34;26.30;99.90
25504;DHT22;13410;52.114;5.718;2023-06-22T08:39:03;26.30;99.90
25504;DHT22;13410;52.114;5.718;2023-06-22T08:41:29;26.60;99.90
25504;DHT22;13410;52.114;5.718;2023-06-22T08:43:54;26.20;99.90
25504;DHT22;13410;52.114;5.718;2023-06-22T08:46:21;26.30;99.90
25504;DHT22;13410;52.114;5.718;2023-06-22T08:48:48;26.30;99.90
25504;DHT22;13410;52.114;5.718;2023-06-22T08:51:14;26.10;99.90
25504;DHT22;13410;52.114;5.718;2023-06-22T08:53:40;26.40;99.90
25504;DHT22;13410;52.114;5.718;2023-06-22T08:56:06;26.40;99.90
25504;DHT22;13410;52.114;5.718;2023-06-22T08:58:36;26.10;99.90
25504;DHT22;13410;52.114;5.718;2023-06-22T09:01:02;25.90;99.90
25504;DHT22;13410;52.114;5.718;2023-06-22T09:03:28;25.80;99.90
25504;DHT22;13410;52.114;5.718;2023-06-22T09:05:53;25.80;99.90
25504;DHT22;13410;52.114;5.718;2023-06-22T09:08:19;26.40;99.90
25504;DHT22;13410;52.114;5.718;2023-06-22T09:10:45;25.60;99.90
25504;DHT22;13410;52.114;5.718;2023-06-22T09:13:10;25.60;99.90
25504;DHT22;13410;52.114;5.718;2023-06-22T09:15:36;25.90;99.90
25504;DHT22;13410;52.114;5.718;2023-06-22T09:18:01;25.60;99.90
25504;DHT22;13410;52.114;5.718;2023-06-22T09:20:27;25.80;99.90
25504;DHT22;13410;52.114;5.718;2023-06-22T09:22:52;26.20;99.90
25504;DHT22;13410;52.114;5.718;2023-06-22T09:25:18;26.40;99.90
25504;DHT22;13410;52.114;5.718;2023-06-22T09:27:46;26.70;99.90
25504;DHT22;13410;52.114;5.718;2023-06-22T09:30:12;27.00;99.90
25504;DHT22;13410;52.114;5.718;2023-06-22T09:32:37;27.60;99.90
25504;DHT22;13410;52.114;5.718;2023-06-22T09:35:04;28.00;99.90
25504;DHT22;13410;52.114;5.718;2023-06-22T09:37:35;28.10;99.90
25504;DHT22;13410;52.114;5.718;2023-06-22T09:40:01;28.10;99.90
25504;DHT22;13410;52.114;5.718;2023-06-22T09:42:26;28.40;99.90
25504;DHT22;13410;52.114;5.718;2023-06-22T09:44:52;28.00;99.90
25504;DHT22;13410;52.114;5.718;2023-06-22T09:47:17;28.20;99.90
25504;DHT22;13410;52.114;5.718;2023-06-22T09:49:43;28.60;99.90
25504;DHT22;13410;52.114;5.718;2023-06-22T09:52:08;27.70;99.90
25504;DHT22;13410;52.114;5.718;2023-06-22T09:54:34;27.40;99.90
25504;DHT22;13410;52.114;5.718;2023-06-22T09:56:59;27.80;99.90
25504;DHT22;13410;52.114;5.718;2023-06-22T09:59:25;27.90;99.90
25504;DHT22;13410;52.114;5.718;2023-06-22T10:01:50;27.70;99.90
25504;DHT22;13410;52.114;5.718;2023-06-22T10:04:16;27.40;99.90
25504;DHT22;13410;52.114;5.718;2023-06-22T10:06:42;26.90;99.90
25504;DHT22;13410;52.114;5.718;2023-06-22T10:09:08;26.50;99.90
25504;DHT22;13410;52.114;5.718;2023-06-22T10:11:33;26.60;99.90
25504;DHT22;13410;52.114;5.718;2023-06-22T10:14:01;26.60;99.90
25504;DHT22;13410;52.114;5.718;2023-06-22T10:16:33;26.60;99.90
25504;DHT22;13410;52.114;5.718;2023-06-22T10:19:00;26.40;99.90
25504;DHT22;13410;52.114;5.718;2023-06-22T10:21:26;26.50;99.90
25504;DHT22;13410;52.114;5.718;2023-06-22T10:23:54;26.10;99.90
25504;DHT22;13410;52.114;5.718;2023-06-22T10:26:21;25.90;99.90
25504;DHT22;13410;52.114;5.718;2023-06-22T10:28:46;25.80;99.90
25504;DHT22;13410;52.114;5.718;2023-06-22T10:31:12;25.60;99.90
25504;DHT22;13410;52.114;5.718;2023-06-22T10:33:37;25.70;99.90
25504;DHT22;13410;52.114;5.718;2023-06-22T10:36:03;25.60;99.90
25504;DHT22;13410;52.114;5.718;2023-06-22T10:38:29;25.80;99.90
25504;DHT22;13410;52.114;5.718;2023-06-22T10:40:54;25.60;99.90
25504;DHT22;13410;52.114;5.718;2023-06-22T10:43:20;25.70;99.90
25504;DHT22;13410;52.114;5.718;2023-06-22T10:45:45;26.50;99.90
25504;DHT22;13410;52.114;5.718;2023-06-22T10:48:11;26.60;99.90
25504;DHT22;13410;52.114;5.718;2023-06-22T10:50:36;26.60;99.90
25504;DHT22;13410;52.114;5.718;2023-06-22T10:53:02;26.70;99.90
25504;DHT22;13410;52.114;5.718;2023-06-22T10:55:27;27.00;99.90
25504;DHT22;13410;52.114;5.718;2023-06-22T10:57:53;27.10;99.90
25504;DHT22;13410;52.114;5.718;2023-06-22T11:00:19;26.70;99.90
25504;DHT22;13410;52.114;5.718;2023-06-22T11:02:44;26.50;99.90
25504;DHT22;13410;52.114;5.718;2023-06-22T11:05:10;26.50;99.90
25504;DHT22;13410;52.114;5.718;2023-06-22T11:07:37;27.00;99.90
25504;DHT22;13410;52.114;5.718;2023-06-22T11:10:03;26.70;99.90
25504;DHT22;13410;52.114;5.718;2023-06-22T11:12:29;27.00;99.90
25504;DHT22;13410;52.114;5.718;2023-06-22T11:14:55;26.80;99.90
25504;DHT22;13410;52.114;5.718;2023-06-22T11:17:22;27.20;99.90
25504;DHT22;13410;52.114;5.718;2023-06-22T11:19:48;27.30;99.90
25504;DHT22;13410;52.114;5.718;2023-06-22T11:22:13;27.30;99.90
25504;DHT22;13410;52.114;5.718;2023-06-22T11:24:39;27.30;99.90
25504;DHT22;13410;52.114;5.718;2023-06-22T11:27:05;27.30;99.90
25504;DHT22;13410;52.114;5.718;2023-06-22T11:29:30;27.40;99.90
25504;DHT22;13410;52.114;5.718;2023-06-22T11:31:56;27.40;99.90
25504;DHT22;13410;52.114;5.718;2023-06-22T11:34:21;27.20;99.90
25504;DHT22;13410;52.114;5.718;2023-06-22T11:36:47;27.20;99.90
25504;DHT22;13410;52.114;5.718;2023-06-22T11:39:13;27.50;99.90
25504;DHT22;13410;52.114;5.718;2023-06-22T11:41:40;27.60;99.90
25504;DHT22;13410;52.114;5.718;2023-06-22T11:44:06;27.40;99.90
25504;DHT22;13410;52.114;5.718;2023-06-22T11:46:32;27.00;99.90
25504;DHT22;13410;52.114;5.718;2023-06-22T11:48:58;26.80;99.90
25504;DHT22;13410;52.114;5.718;2023-06-22T11:51:24;26.70;99.90
25504;DHT22;13410;52.114;5.718;2023-06-22T11:53:49;27.00;99.90
25504;DHT22;13410;52.114;5.718;2023-06-22T11:56:15;26.40;99.90
25504;DHT22;13410;52.114;5.718;2023-06-22T11:58:40;26.50;99.90
25504;DHT22;13410;52.114;5.718;2023-06-22T12:01:06;26.50;99.90
25504;DHT22;13410;52.114;5.718;2023-06-22T12:03:31;26.60;99.90
25504;DHT22;13410;52.114;5.718;2023-06-22T12:05:57;26.10;99.90
25504;DHT22;13410;52.114;5.718;2023-06-22T12:08:23;26.20;99.90
25504;DHT22;13410;52.114;5.718;2023-06-22T12:10:50;26.20;99.90
25504;DHT22;13410;52.114;5.718;2023-06-22T12:13:16;26.00;99.90
25504;DHT22;13410;52.114;5.718;2023-06-22T12:15:41;25.60;99.90
25504;DHT22;13410;52.114;5.718;2023-06-22T12:18:07;25.40;99.90
25504;DHT22;13410;52.114;5.718;2023-06-22T12:20:33;25.50;99.90
25504;DHT22;13410;52.114;5.718;2023-06-22T12:22:59;25.80;99.90
25504;DHT22;13410;52.114;5.718;2023-06-22T12:25:24;26.10;99.90
25504;DHT22;13410;52.114;5.718;2023-06-22T12:27:50;26.60;99.90
25504;DHT22;13410;52.114;5.718;2023-06-22T12:30:16;26.30;99.90
25504;DHT22;13410;52.114;5.718;2023-06-22T12:32:42;26.50;99.90
25504;DHT22;13410;52.114;5.718;2023-06-22T12:35:08;26.10;99.90
25504;DHT22;13410;52.114;5.718;2023-06-22T12:37:41;26.20;99.90
25504;DHT22;13410;52.114;5.718;2023-06-22T12:40:08;26.50;99.90
25504;DHT22;13410;52.114;5.718;2023-06-22T12:42:34;26.80;99.90
25504;DHT22;13410;52.114;5.718;2023-06-22T12:44:59;26.70;99.90
25504;DHT22;13410;52.114;5.718;2023-06-22T12:47:25;26.40;99.90
25504;DHT22;13410;52.114;5.718;2023-06-22T12:49:50;25.80;99.90
25504;DHT22;13410;52.114;5.718;2023-06-22T12:52:16;25.80;99.90
25504;DHT22;13410;52.114;5.718;2023-06-22T12:54:41;25.70;99.90
25504;DHT22;13410;52.114;5.718;2023-06-22T12:57:07;25.30;99.90
25504;DHT22;13410;52.114;5.718;2023-06-22T12:59:32;25.40;99.90
25504;DHT22;13410;52.114;5.718;2023-06-22T13:01:58;25.60;99.90
25504;DHT22;13410;52.114;5.718;2023-06-22T13:04:23;25.70;99.90
25504;DHT22;13410;52.114;5.718;2023-06-22T13:06:50;25.70;99.90
25504;DHT22;13410;52.114;5.718;2023-06-22T13:09:19;26.10;99.90
25504;DHT22;13410;52.114;5.718;2023-06-22T13:11:44;26.20;99.90
25504;DHT22;13410;52.114;5.718;2023-06-22T13:14:10;27.00;99.90
25504;DHT22;13410;52.114;5.718;2023-06-22T13:16:35;26.70;99.90
25504;DHT22;13410;52.114;5.718;2023-06-22T13:19:01;26.70;99.90
25504;DHT22;13410;52.114;5.718;2023-06-22T13:21:27;26.70;99.90
25504;DHT22;13410;52.114;5.718;2023-06-22T13:23:52;27.10;99.90
25504;DHT22;13410;52.114;5.718;2023-06-22T13:26:18;27.30;99.90
25504;DHT22;13410;52.114;5.718;2023-06-22T13:28:43;27.80;99.90
25504;DHT22;13410;52.114;5.718;2023-06-22T13:31:09;28.20;99.90
25504;DHT22;13410;52.114;5.718;2023-06-22T13:33:35;28.60;99.90
25504;DHT22;13410;52.114;5.718;2023-06-22T13:36:02;28.80;99.90
25504;DHT22;13410;52.114;5.718;2023-06-22T13:38:29;28.80;99.90
25504;DHT22;13410;52.114;5.718;2023-06-22T13:40:56;28.80;99.90
25504;DHT22;13410;52.114;5.718;2023-06-22T13:43:23;28.90;99.90
25504;DHT22;13410;52.114;5.718;2023-06-22T13:45:49;29.20;99.90
25504;DHT22;13410;52.114;5.718;2023-06-22T13:48:14;29.00;99.90
25504;DHT22;13410;52.114;5.718;2023-06-22T13:50:40;29.20;99.90
25504;DHT22;13410;52.114;5.718;2023-06-22T13:53:06;29.00;99.90
25504;DHT22;13410;52.114;5.718;2023-06-22T13:55:31;28.90;99.90
25504;DHT22;13410;52.114;5.718;2023-06-22T13:57:57;28.50;99.90
25504;DHT22;13410;52.114;5.718;2023-06-22T14:00:22;28.10;99.90
25504;DHT22;13410;52.114;5.718;2023-06-22T14:02:48;28.20;99.90
25504;DHT22;13410;52.114;5.718;2023-06-22T14:05:14;28.10;99.90
25504;DHT22;13410;52.114;5.718;2023-06-22T14:07:39;28.10;99.90
25504;DHT22;13410;52.114;5.718;2023-06-22T14:10:05;28.40;99.90
25504;DHT22;13410;52.114;5.718;2023-06-22T14:12:31;28.20;99.90
25504;DHT22;13410;52.114;5.718;2023-06-22T14:14:56;27.80;99.90
25504;DHT22;13410;52.114;5.718;2023-06-22T14:17:23;27.80;99.90
25504;DHT22;13410;52.114;5.718;2023-06-22T14:19:51;27.50;99.90
25504;DHT22;13410;52.114;5.718;2023-06-22T14:22:18;27.80;99.90
25504;DHT22;13410;52.114;5.718;2023-06-22T14:24:44;27.90;99.90
25504;DHT22;13410;52.114;5.718;2023-06-22T14:27:10;27.50;99.90
25504;DHT22;13410;52.114;5.718;2023-06-22T14:29:35;26.10;99.90
25504;DHT22;13410;52.114;5.718;2023-06-22T14:32:01;24.90;99.90
25504;DHT22;13410;52.114;5.718;2023-06-22T14:34:27;24.40;99.90
25504;DHT22;13410;52.114;5.718;2023-06-22T14:36:52;24.20;99.90
25504;DHT22;13410;52.114;5.718;2023-06-22T14:39:18;24.50;99.90
25504;DHT22;13410;52.114;5.718;2023-06-22T14:41:43;24.60;99.90
25504;DHT22;13410;52.114;5.718;2023-06-22T14:44:09;24.50;99.90
25504;DHT22;13410;52.114;5.718;2023-06-22T14:46:35;24.60;99.90
25504;DHT22;13410;52.114;5.718;2023-06-22T14:49:00;24.80;99.90
25504;DHT22;13410;52.114;5.718;2023-06-22T14:51:26;25.10;99.90
25504;DHT22;13410;52.114;5.718;2023-06-22T14:53:52;24.90;99.90
25504;DHT22;13410;52.114;5.718;2023-06-22T14:56:17;24.80;99.90
25504;DHT22;13410;52.114;5.718;2023-06-22T14:58:43;24.60;99.90
25504;DHT22;13410;52.114;5.718;2023-06-22T15:01:12;24.20;99.90
25504;DHT22;13410;52.114;5.718;2023-06-22T15:03:38;24.20;99.90
25504;DHT22;13410;52.114;5.718;2023-06-22T15:06:04;24.50;99.90
25504;DHT22;13410;52.114;5.718;2023-06-22T15:08:30;24.20;99.90
25504;DHT22;13410;52.114;5.718;2023-06-22T15:10:59;24.00;99.90
25504;DHT22;13410;52.114;5.718;2023-06-22T15:13:25;24.30;99.90
25504;DHT22;13410;52.114;5.718;2023-06-22T15:15:52;24.50;99.90
25504;DHT22;13410;52.114;5.718;2023-06-22T15:18:18;25.10;99.90
25504;DHT22;13410;52.114;5.718;2023-06-22T15:20:43;25.20;99.90
25504;DHT22;13410;52.114;5.718;2023-06-22T15:23:11;25.10;99.90
25504;DHT22;13410;52.114;5.718;2023-06-22T15:25:37;25.50;99.90
25504;DHT22;13410;52.114;5.718;2023-06-22T15:28:03;25.70;99.90